createdAt,value
2023-02-09T00:00:25.392Z,0
2023-02-09T00:06:45.448Z,0
2023-02-09T00:13:08.370Z,0
2023-02-09T00:19:28.532Z,0
2023-02-09T00:25:51.464Z,0
2023-02-09T00:32:11.727Z,0
2023-02-09T00:38:34.538Z,0
2023-02-09T00:44:54.371Z,0
2023-02-09T00:51:17.418Z,0
2023-02-09T00:57:37.454Z,0
2023-02-09T01:04:00.443Z,0
2023-02-09T01:10:20.455Z,0
2023-02-09T01:16:43.498Z,0
2023-02-09T01:23:03.532Z,0
2023-02-09T01:29:26.309Z,0
2023-02-09T01:35:46.384Z,0
2023-02-09T01:42:09.328Z,0
2023-02-09T01:48:29.432Z,0
2023-02-09T01:54:52.495Z,0
2023-02-09T02:01:12.410Z,0
2023-02-09T02:07:35.458Z,0
2023-02-09T02:13:55.514Z,0
2023-02-09T02:20:18.436Z,0
2023-02-09T02:26:38.388Z,0
2023-02-09T02:33:01.388Z,0
2023-02-09T02:39:21.421Z,0
2023-02-09T02:45:44.351Z,0
2023-02-09T02:52:04.397Z,0
2023-02-09T02:58:27.328Z,0
2023-02-09T03:04:47.362Z,0
2023-02-09T03:11:10.389Z,0
2023-02-09T03:17:30.421Z,0
2023-02-09T03:23:53.351Z,0
2023-02-09T03:30:13.569Z,0
2023-02-09T03:36:36.459Z,0
2023-02-09T03:42:56.407Z,0
2023-02-09T03:49:19.380Z,0
2023-02-09T03:55:39.391Z,0
2023-02-09T04:02:02.422Z,0
2023-02-09T04:25:09.285Z,0
2023-02-09T04:31:29.517Z,0
2023-02-09T04:37:52.372Z,0
2023-02-09T04:44:12.353Z,0
2023-02-09T04:50:35.397Z,0
2023-02-09T04:56:55.376Z,0
2023-02-09T05:03:18.443Z,0
2023-02-09T05:09:38.379Z,0
2023-02-09T05:16:01.431Z,0
2023-02-09T05:22:21.427Z,0
2023-02-09T05:28:44.356Z,0
2023-02-09T05:35:04.373Z,0
2023-02-09T05:41:27.366Z,0
2023-02-09T05:47:47.405Z,0
2023-02-09T05:54:10.340Z,0
2023-02-09T06:00:30.342Z,0
2023-02-09T06:06:53.365Z,0
2023-02-09T06:13:13.319Z,0
2023-02-09T06:19:36.384Z,0
2023-02-09T06:25:56.542Z,1
2023-02-09T06:32:19.440Z,2
2023-02-09T06:38:39.376Z,7
2023-02-09T06:45:02.409Z,19
2023-02-09T06:51:22.468Z,44
2023-02-09T06:57:45.539Z,85
2023-02-09T07:04:05.353Z,137
2023-02-09T07:10:28.367Z,203
2023-02-09T07:16:48.401Z,275
2023-02-09T07:23:11.349Z,359
2023-02-09T07:29:31.363Z,443
2023-02-09T07:35:54.429Z,533
2023-02-09T07:42:14.422Z,625
2023-02-09T07:48:37.386Z,714
2023-02-09T07:54:57.972Z,795
2023-02-09T08:01:21.409Z,850
2023-02-09T08:07:41.432Z,913
2023-02-09T08:14:04.473Z,985
2023-02-09T08:20:24.383Z,1064
2023-02-09T08:26:47.501Z,1136
2023-02-09T08:33:07.435Z,1213
2023-02-09T08:39:30.345Z,1274
2023-02-09T08:45:50.952Z,1341
2023-02-09T08:52:13.377Z,1414
2023-02-09T08:58:33.389Z,1492
2023-02-09T09:04:56.502Z,1609
2023-02-09T09:11:16.699Z,1673
2023-02-09T09:17:39.721Z,1790
2023-02-09T09:33:11.359Z,1949
2023-02-09T09:39:31.330Z,2118
2023-02-09T09:45:54.367Z,2321
2023-02-09T09:52:14.391Z,2424
2023-02-09T09:58:37.382Z,2617
2023-02-09T10:04:57.616Z,2714
2023-02-09T10:11:20.374Z,2846
2023-02-09T10:17:40.547Z,2942
2023-02-09T10:24:03.362Z,2927
2023-02-09T10:30:23.490Z,3005
2023-02-09T10:36:46.469Z,2937
2023-02-09T10:43:06.347Z,3390
2023-02-09T10:49:29.504Z,3482
2023-02-09T10:55:49.452Z,3780
2023-02-09T11:02:14.108Z,3714
2023-02-09T11:08:32.424Z,3846
2023-02-09T11:14:55.398Z,4225
2023-02-09T11:21:15.442Z,3647
2023-02-09T11:27:38.434Z,3575
2023-02-09T11:33:58.412Z,3683
2023-02-09T11:40:21.430Z,3679
2023-02-09T11:46:41.506Z,3808
2023-02-09T11:53:04.364Z,3573
2023-02-09T11:59:24.410Z,3681
2023-02-09T12:05:47.493Z,3980
2023-02-09T12:12:08.358Z,4367
2023-02-09T12:18:31.344Z,4152
2023-02-09T12:24:51.394Z,3705
2023-02-09T12:31:14.453Z,4262
2023-02-09T12:37:34.334Z,4554
2023-02-09T12:43:57.428Z,4110
2023-02-09T12:50:17.347Z,4077
2023-02-09T12:56:40.358Z,4574
2023-02-09T13:03:00.405Z,4567
2023-02-09T13:09:23.363Z,4749
2023-02-09T13:15:43.463Z,5456
2023-02-09T13:22:06.404Z,4160
2023-02-09T13:28:26.452Z,4565
2023-02-09T13:34:49.631Z,4797
2023-02-09T13:41:09.424Z,4310
2023-02-09T13:47:32.365Z,3699
2023-02-09T13:53:52.386Z,3687
2023-02-09T14:00:15.451Z,3406
2023-02-09T14:06:35.463Z,3361
2023-02-09T14:12:58.381Z,3316
2023-02-09T14:19:18.528Z,3521
2023-02-09T14:25:41.371Z,2719
2023-02-09T14:32:01.379Z,2606
2023-02-09T14:48:30.548Z,2176
2023-02-09T14:54:50.397Z,2133
2023-02-09T15:01:13.418Z,1995
2023-02-09T15:07:33.449Z,2230
2023-02-09T15:13:56.355Z,1809
2023-02-09T15:20:16.402Z,1526
2023-02-09T15:26:39.414Z,1307
2023-02-09T15:32:59.397Z,1217
2023-02-09T15:39:22.386Z,983
2023-02-09T15:45:42.359Z,825
2023-02-09T15:52:05.398Z,687
2023-02-09T15:58:25.393Z,553
2023-02-09T16:04:48.401Z,428
2023-02-09T16:11:08.398Z,324
2023-02-09T16:17:31.384Z,236
2023-02-09T16:23:51.429Z,156
2023-02-09T16:30:14.403Z,99
2023-02-09T16:36:34.546Z,63
2023-02-09T16:42:57.387Z,35
2023-02-09T16:49:17.344Z,14
2023-02-09T16:55:40.402Z,5
2023-02-09T17:02:00.392Z,2
2023-02-09T17:08:23.421Z,1
2023-02-09T17:14:43.419Z,0
2023-02-09T17:21:06.381Z,0
2023-02-09T17:27:26.513Z,0
2023-02-09T17:33:49.351Z,0
2023-02-09T17:40:09.395Z,0
2023-02-09T17:46:32.497Z,0
2023-02-09T17:52:52.465Z,0
2023-02-09T17:59:15.506Z,0
2023-02-09T18:05:35.429Z,0
2023-02-09T18:11:58.447Z,0
2023-02-09T18:18:18.480Z,0
2023-02-09T18:24:41.397Z,0
2023-02-09T18:31:01.407Z,0
2023-02-09T18:37:24.362Z,0
2023-02-09T18:43:44.680Z,0
2023-02-09T18:50:07.338Z,0
2023-02-09T18:56:27.433Z,0
2023-02-09T19:02:50.400Z,0
2023-02-09T19:09:10.340Z,0
2023-02-09T19:15:33.714Z,0
2023-02-09T19:21:53.470Z,0
2023-02-09T19:28:16.368Z,0
2023-02-09T19:34:36.569Z,0
2023-02-09T19:41:10.000Z,0
2023-02-09T20:04:05.898Z,0
2023-02-09T20:10:25.356Z,0
2023-02-09T20:16:48.418Z,0
2023-02-09T20:23:08.476Z,0
2023-02-09T20:29:31.444Z,0
2023-02-09T20:35:51.380Z,0
2023-02-09T20:42:14.366Z,0
2023-02-09T20:48:34.416Z,0
2023-02-09T20:54:57.385Z,0
2023-02-09T21:01:17.447Z,0
2023-02-09T21:07:40.396Z,0
2023-02-09T21:14:00.349Z,0
2023-02-09T21:20:23.566Z,0
2023-02-09T21:26:43.490Z,0
2023-02-09T21:33:06.355Z,0
2023-02-09T21:39:26.413Z,0
2023-02-09T21:45:49.390Z,0
2023-02-09T21:52:09.436Z,0
2023-02-09T21:58:32.382Z,0
2023-02-09T22:04:52.559Z,0
2023-02-09T22:11:15.360Z,0
2023-02-09T22:17:35.386Z,0
2023-02-09T22:23:58.358Z,0
2023-02-09T22:30:18.368Z,0
2023-02-09T22:36:41.433Z,0
2023-02-09T22:43:01.597Z,0
2023-02-09T22:49:24.576Z,0
2023-02-09T22:55:44.474Z,0
2023-02-09T23:18:53.375Z,0
2023-02-09T23:25:13.434Z,0
2023-02-09T23:31:36.509Z,0
2023-02-09T23:37:56.490Z,0
2023-02-09T23:44:19.561Z,0
2023-02-09T23:50:39.478Z,0
2023-02-09T23:57:02.622Z,0
